createdAt,value
2022-09-13T00:01:55.484Z,10.45
2022-09-13T00:05:03.732Z,10.50
2022-09-13T00:08:14.269Z,10.46
2022-09-13T00:11:25.714Z,10.45
2022-09-13T00:14:34.058Z,10.48
2022-09-13T00:17:43.675Z,10.41
2022-09-13T00:21:07.753Z,10.49
2022-09-13T00:24:17.540Z,10.46
2022-09-13T00:27:26.006Z,10.38
2022-09-13T00:30:35.037Z,10.45
2022-09-13T00:33:43.451Z,10.39
2022-09-13T00:36:51.821Z,10.36
2022-09-13T00:40:01.494Z,10.38
2022-09-13T00:43:18.505Z,10.23
2022-09-13T00:46:37.707Z,10.29
2022-09-13T00:49:50.897Z,10.22
2022-09-13T00:53:06.626Z,10.12
2022-09-13T00:56:24.921Z,10.12
2022-09-13T00:59:42.013Z,10.10
2022-09-13T01:02:57.198Z,10.14
2022-09-13T01:06:11.073Z,10.17
2022-09-13T01:09:19.213Z,10.03
2022-09-13T01:12:40.881Z,10.07
2022-09-13T01:15:49.389Z,10.03
2022-09-13T01:18:57.765Z,9.94
2022-09-13T01:22:57.409Z,9.94
2022-09-13T01:27:16.738Z,9.96
2022-09-13T01:30:35.722Z,9.92
2022-09-13T01:34:06.096Z,9.91
2022-09-13T01:37:36.668Z,9.99
2022-09-13T01:41:04.772Z,9.88
2022-09-13T01:44:26.573Z,9.98
2022-09-13T01:47:50.392Z,9.84
2022-09-13T01:51:06.531Z,9.81
2022-09-13T01:54:23.391Z,9.83
2022-09-13T01:57:38.290Z,9.86
2022-09-13T02:00:55.928Z,9.82
2022-09-13T02:04:13.225Z,9.74
2022-09-13T02:07:26.088Z,9.80
2022-09-13T02:10:41.199Z,9.81
2022-09-13T02:13:58.130Z,9.90
2022-09-13T02:17:12.677Z,9.87
2022-09-13T02:20:29.647Z,9.87
2022-09-13T02:23:43.209Z,9.85
2022-09-13T02:26:56.850Z,9.78
2022-09-13T02:30:10.188Z,9.76
2022-09-13T02:33:25.643Z,9.76
2022-09-13T02:36:42.004Z,9.82
2022-09-13T02:39:58.476Z,9.84
2022-09-13T02:43:13.028Z,9.83
2022-09-13T02:46:38.127Z,9.85
2022-09-13T02:49:58.777Z,9.89
2022-09-13T02:53:20.813Z,9.92
2022-09-13T02:56:41.861Z,9.94
2022-09-13T02:59:50.705Z,9.94
2022-09-13T03:03:04.237Z,9.82
2022-09-13T03:06:12.745Z,9.78
2022-09-13T03:09:23.404Z,9.74
2022-09-13T03:12:52.719Z,9.79
2022-09-13T03:16:16.011Z,9.82
2022-09-13T03:19:47.839Z,9.70
2022-09-13T03:23:28.378Z,9.73
2022-09-13T03:26:53.276Z,9.72
2022-09-13T03:30:07.726Z,9.64
2022-09-13T03:33:27.446Z,9.59
2022-09-13T03:36:42.958Z,9.57
2022-09-13T03:40:00.644Z,9.56
2022-09-13T03:43:17.097Z,9.57
2022-09-13T03:46:32.542Z,9.66
2022-09-13T03:49:41.599Z,9.54
2022-09-13T03:52:57.418Z,9.58
2022-09-13T03:56:14.781Z,9.54
2022-09-13T03:59:24.444Z,9.50
2022-09-13T04:02:32.916Z,9.56
2022-09-13T04:05:41.571Z,9.52
2022-09-13T04:08:50.214Z,9.50
2022-09-13T04:11:58.896Z,9.50
2022-09-13T04:15:11.297Z,9.50
2022-09-13T04:18:20.372Z,9.49
2022-09-13T04:21:28.631Z,9.43
2022-09-13T04:24:40.078Z,9.42
2022-09-13T04:27:48.476Z,9.42
2022-09-13T04:31:00.323Z,9.45
2022-09-13T04:34:10.422Z,9.40
2022-09-13T04:37:19.199Z,9.49
2022-09-13T04:40:27.487Z,9.44
2022-09-13T04:43:35.652Z,9.43
2022-09-13T04:46:49.426Z,9.45
2022-09-13T04:49:58.329Z,9.45
2022-09-13T04:53:07.020Z,9.52
2022-09-13T04:56:17.998Z,9.52
2022-09-13T04:59:26.461Z,9.59
2022-09-13T05:02:36.449Z,9.55
2022-09-13T05:05:45.557Z,9.61
2022-09-13T05:08:57.452Z,9.69
2022-09-13T05:12:06.524Z,9.83
2022-09-13T05:15:14.709Z,9.85
2022-09-13T05:18:24.582Z,9.90
2022-09-13T05:21:33.594Z,9.93
2022-09-13T05:24:42.039Z,10.01
2022-09-13T05:27:50.141Z,10.09
2022-09-13T05:31:00.446Z,10.18
2022-09-13T05:34:13.982Z,10.30
2022-09-13T05:37:22.357Z,10.39
2022-09-13T05:40:32.714Z,10.47
2022-09-13T05:43:41.012Z,10.63
2022-09-13T05:46:49.745Z,10.65
2022-09-13T05:50:10.222Z,10.73
2022-09-13T05:53:18.818Z,10.95
2022-09-13T05:56:30.138Z,10.95
2022-09-13T05:59:38.310Z,11.05
2022-09-13T06:02:46.576Z,11.11
2022-09-13T06:05:59.702Z,11.17
2022-09-13T06:09:11.019Z,11.36
2022-09-13T06:12:21.067Z,11.90
2022-09-13T06:15:29.648Z,12.93
2022-09-13T06:18:40.530Z,13.45
2022-09-13T06:21:53.421Z,13.92
2022-09-13T06:25:01.962Z,13.86
2022-09-13T06:28:11.080Z,13.66
2022-09-13T06:31:23.373Z,13.49
2022-09-13T06:34:34.545Z,13.60
2022-09-13T06:37:47.279Z,14.32
2022-09-13T06:41:02.988Z,15.85
2022-09-13T06:44:11.492Z,17.56
2022-09-13T06:47:19.742Z,19.11
2022-09-13T06:50:28.233Z,20.60
2022-09-13T06:53:38.995Z,21.63
2022-09-13T06:56:47.319Z,22.61
2022-09-13T06:59:55.843Z,22.72
2022-09-13T07:03:04.368Z,23.07
2022-09-13T07:06:19.111Z,23.30
2022-09-13T07:09:31.288Z,23.58
2022-09-13T07:12:42.639Z,23.53
2022-09-13T07:15:55.110Z,22.74
2022-09-13T07:19:07.372Z,21.84
2022-09-13T07:22:16.701Z,21.62
2022-09-13T07:25:34.387Z,21.86
2022-09-13T07:28:46.360Z,22.19
2022-09-13T07:31:56.743Z,22.04
2022-09-13T07:35:06.796Z,21.69
2022-09-13T07:38:15.245Z,21.28
2022-09-13T07:41:27.927Z,21.08
2022-09-13T07:44:36.349Z,22.13
2022-09-13T07:47:44.708Z,21.52
2022-09-13T07:51:01.697Z,21.90
2022-09-13T07:54:15.001Z,21.24
2022-09-13T07:57:24.699Z,21.09
2022-09-13T08:00:33.432Z,20.92
2022-09-13T08:03:42.599Z,21.03
2022-09-13T08:06:51.828Z,20.98
2022-09-13T08:10:09.200Z,20.93
2022-09-13T08:13:26.558Z,20.73
2022-09-13T08:16:36.888Z,21.02
2022-09-13T08:19:48.270Z,21.55
2022-09-13T08:23:03.804Z,21.52
2022-09-13T08:26:21.228Z,22.09
2022-09-13T08:30:30.019Z,22.38
2022-09-13T08:33:52.379Z,21.81
2022-09-13T08:37:01.275Z,21.51
2022-09-13T08:40:18.280Z,21.77
2022-09-13T08:43:49.934Z,22.41
2022-09-13T08:47:31.421Z,23.17
2022-09-13T08:50:45.420Z,23.11
2022-09-13T08:53:53.993Z,22.34
2022-09-13T08:57:21.123Z,22.74
2022-09-13T09:00:44.075Z,22.89
2022-09-13T09:04:11.699Z,22.85
2022-09-13T09:07:25.407Z,22.36
2022-09-13T09:10:42.019Z,22.86
2022-09-13T09:13:58.641Z,22.64
2022-09-13T09:17:17.681Z,23.00
2022-09-13T09:20:37.995Z,23.01
2022-09-13T09:23:52.497Z,23.08
2022-09-13T09:27:11.775Z,22.78
2022-09-13T09:30:20.561Z,22.84
2022-09-13T09:33:57.271Z,22.98
2022-09-13T09:37:21.071Z,23.13
2022-09-13T09:40:31.795Z,23.27
2022-09-13T09:43:47.172Z,23.48
2022-09-13T09:47:02.513Z,23.94
2022-09-13T09:50:17.959Z,23.74
2022-09-13T09:53:36.651Z,23.61
2022-09-13T09:56:55.744Z,23.23
2022-09-13T10:00:14.643Z,23.47
2022-09-13T10:03:28.737Z,23.74
2022-09-13T10:06:40.695Z,23.63
2022-09-13T10:10:21.701Z,23.80
2022-09-13T10:13:33.808Z,23.91
2022-09-13T10:16:43.639Z,23.83
2022-09-13T10:20:02.812Z,24.09
2022-09-13T10:23:20.050Z,24.25
2022-09-13T10:26:37.104Z,24.20
2022-09-13T10:29:55.528Z,23.59
2022-09-13T10:33:07.285Z,23.48
2022-09-13T10:36:48.296Z,23.27
2022-09-13T10:40:14.300Z,23.03
2022-09-13T10:43:30.295Z,23.18
2022-09-13T10:46:45.147Z,23.38
2022-09-13T10:50:02.080Z,23.73
2022-09-13T10:53:40.429Z,24.01
2022-09-13T10:56:50.815Z,23.98
2022-09-13T11:00:00.839Z,23.91
2022-09-13T11:03:34.137Z,24.20
2022-09-13T11:06:52.368Z,24.28
2022-09-13T11:10:19.216Z,24.40
2022-09-13T11:13:48.596Z,24.33
2022-09-13T11:17:15.461Z,24.42
2022-09-13T11:20:39.833Z,24.78
2022-09-13T11:24:14.138Z,25.22
2022-09-13T11:27:37.146Z,25.43
2022-09-13T11:31:12.273Z,26.49
2022-09-13T11:34:45.618Z,27.49
2022-09-13T11:38:07.024Z,27.94
2022-09-13T11:41:35.480Z,27.24
2022-09-13T11:45:23.746Z,27.36
2022-09-13T11:49:10.457Z,26.98
2022-09-13T11:52:44.174Z,27.53
2022-09-13T11:56:06.638Z,26.65
2022-09-13T11:59:26.586Z,27.27
2022-09-13T12:02:46.533Z,27.04
2022-09-13T12:06:02.997Z,27.23
2022-09-13T12:09:22.060Z,26.52
2022-09-13T12:15:52.311Z,26.40
2022-09-13T12:19:06.339Z,26.46
2022-09-13T12:22:15.866Z,26.12
2022-09-13T12:25:35.153Z,26.00
2022-09-13T12:28:54.402Z,25.70
2022-09-13T12:32:07.867Z,26.12
2022-09-13T12:35:28.430Z,25.54
2022-09-13T12:39:31.500Z,25.64
2022-09-13T12:43:24.113Z,25.78
2022-09-13T12:47:18.270Z,25.88
2022-09-13T12:50:58.417Z,25.98
2022-09-13T12:54:48.060Z,25.82
2022-09-13T12:58:16.663Z,25.51
2022-09-13T13:01:31.205Z,25.24
2022-09-13T13:04:45.241Z,25.35
2022-09-13T13:08:00.024Z,25.38
2022-09-13T13:11:13.793Z,25.45
2022-09-13T13:14:47.448Z,25.64
2022-09-13T13:17:59.036Z,25.65
2022-09-13T13:21:47.077Z,25.58
2022-09-13T13:24:56.963Z,25.60
2022-09-13T13:28:33.815Z,25.74
2022-09-13T13:31:47.450Z,25.62
2022-09-13T13:34:55.860Z,25.64
2022-09-13T13:38:42.546Z,25.75
2022-09-13T13:41:56.411Z,25.74
2022-09-13T13:45:29.342Z,25.68
2022-09-13T13:48:42.203Z,25.69
2022-09-13T13:52:40.078Z,25.81
2022-09-13T13:56:08.924Z,25.73
2022-09-13T13:59:26.830Z,25.68
2022-09-13T14:02:46.519Z,25.67
2022-09-13T14:06:12.414Z,25.61
2022-09-13T14:09:39.897Z,25.50
2022-09-13T14:13:16.910Z,25.66
2022-09-13T14:16:52.100Z,26.11
2022-09-13T14:20:06.489Z,26.46
2022-09-13T14:23:20.157Z,26.64
2022-09-13T14:26:28.490Z,26.75
2022-09-13T14:29:37.352Z,27.01
2022-09-13T14:32:49.027Z,27.20
2022-09-13T14:36:05.101Z,27.40
2022-09-13T14:39:14.756Z,27.28
2022-09-13T14:42:23.671Z,27.46
2022-09-13T14:45:39.257Z,27.27
2022-09-13T14:48:52.565Z,27.32
2022-09-13T14:52:07.158Z,26.82
2022-09-13T14:55:23.885Z,26.87
2022-09-13T14:58:45.487Z,26.62
2022-09-13T15:02:02.869Z,26.95
2022-09-13T15:05:30.862Z,26.80
2022-09-13T15:08:47.334Z,26.85
2022-09-13T15:12:02.914Z,26.93
2022-09-13T15:15:35.346Z,26.82
2022-09-13T15:18:51.141Z,26.40
2022-09-13T15:22:15.229Z,26.15
2022-09-13T15:25:28.013Z,25.75
2022-09-13T15:28:53.706Z,25.54
2022-09-13T15:32:03.007Z,25.37
2022-09-13T15:35:23.495Z,25.37
2022-09-13T15:38:35.332Z,25.31
2022-09-13T15:41:58.121Z,25.29
2022-09-13T15:45:13.942Z,25.40
2022-09-13T15:48:32.619Z,25.38
2022-09-13T15:51:52.930Z,25.31
2022-09-13T15:55:04.265Z,25.18
2022-09-13T15:58:14.212Z,25.02
2022-09-13T16:01:31.134Z,24.79
2022-09-13T16:04:42.352Z,24.69
2022-09-13T16:07:52.707Z,24.47
2022-09-13T16:11:01.428Z,24.33
2022-09-13T16:14:12.334Z,24.13
2022-09-13T16:17:26.948Z,23.94
2022-09-13T16:20:37.392Z,23.80
2022-09-13T16:23:46.126Z,23.73
2022-09-13T16:26:56.720Z,23.64
2022-09-13T16:30:06.503Z,23.65
2022-09-13T16:33:16.392Z,23.55
2022-09-13T16:36:28.721Z,23.46
2022-09-13T16:39:37.113Z,23.30
2022-09-13T16:42:45.693Z,23.15
2022-09-13T16:45:54.075Z,23.02
2022-09-13T16:49:04.721Z,22.80
2022-09-13T16:52:13.120Z,22.54
2022-09-13T16:55:21.520Z,22.33
2022-09-13T16:58:38.643Z,22.12
2022-09-13T17:01:47.157Z,21.96
2022-09-13T17:04:56.920Z,21.83
2022-09-13T17:08:05.898Z,21.72
2022-09-13T17:11:18.503Z,21.66
2022-09-13T17:14:27.542Z,21.66
2022-09-13T17:17:36.424Z,21.55
2022-09-13T17:20:48.573Z,21.53
2022-09-13T17:23:56.887Z,21.39
2022-09-13T17:27:08.000Z,21.35
2022-09-13T17:30:17.077Z,21.24
2022-09-13T17:33:25.328Z,21.10
2022-09-13T17:36:40.195Z,20.96
2022-09-13T17:39:49.344Z,20.80
2022-09-13T17:42:58.412Z,20.63
2022-09-13T17:46:13.295Z,20.52
2022-09-13T17:49:26.388Z,20.42
2022-09-13T17:52:36.426Z,20.24
2022-09-13T17:55:53.208Z,20.12
2022-09-13T17:59:10.461Z,20.05
2022-09-13T18:02:28.444Z,20.07
2022-09-13T18:05:42.700Z,19.95
2022-09-13T18:08:55.588Z,19.88
2022-09-13T18:12:08.957Z,19.81
2022-09-13T18:15:22.936Z,19.75
2022-09-13T18:18:33.767Z,19.60
2022-09-13T18:21:42.493Z,19.51
2022-09-13T18:25:01.475Z,19.47
2022-09-13T18:28:10.498Z,19.27
2022-09-13T18:31:22.447Z,19.14
2022-09-13T18:34:30.815Z,19.14
2022-09-13T18:37:39.866Z,19.17
2022-09-13T18:41:03.869Z,19.13
2022-09-13T18:44:20.217Z,19.03
2022-09-13T18:47:33.036Z,18.95
2022-09-13T18:50:44.504Z,18.92
2022-09-13T18:53:53.355Z,18.84
2022-09-13T18:57:03.767Z,18.75
2022-09-13T19:00:15.779Z,18.71
2022-09-13T19:03:25.243Z,18.71
2022-09-13T19:06:39.838Z,18.69
2022-09-13T19:09:50.716Z,18.65
2022-09-13T19:13:02.606Z,18.63
2022-09-13T19:16:15.694Z,18.63
2022-09-13T19:19:24.836Z,18.61
2022-09-13T19:22:33.715Z,18.51
2022-09-13T19:25:42.239Z,18.41
2022-09-13T19:28:59.730Z,18.38
2022-09-13T19:32:08.763Z,18.31
2022-09-13T19:35:18.163Z,18.24
2022-09-13T19:38:27.420Z,18.13
2022-09-13T19:41:38.332Z,18.16
2022-09-13T19:44:50.463Z,18.06
2022-09-13T19:51:37.828Z,18.01
2022-09-13T19:54:48.992Z,17.89
2022-09-13T19:57:57.467Z,17.77
2022-09-13T20:01:12.096Z,17.67
2022-09-13T20:04:25.169Z,17.60
2022-09-13T20:07:33.553Z,17.60
2022-09-13T20:10:44.148Z,17.55
2022-09-13T20:13:52.939Z,17.49
2022-09-13T20:17:07.331Z,17.42
2022-09-13T20:20:16.093Z,17.36
2022-09-13T20:23:29.410Z,17.31
2022-09-13T20:26:38.149Z,17.22
2022-09-13T20:29:48.057Z,17.17
2022-09-13T20:32:57.974Z,17.16
2022-09-13T20:36:13.655Z,17.09
2022-09-13T20:39:21.920Z,17.03
2022-09-13T20:42:36.045Z,16.99
2022-09-13T20:45:44.279Z,16.92
2022-09-13T20:49:04.756Z,16.90
2022-09-13T20:52:14.286Z,16.83
2022-09-13T20:55:22.523Z,16.77
2022-09-13T20:58:31.165Z,16.76
2022-09-13T21:01:40.234Z,16.75
2022-09-13T21:04:49.831Z,16.75
2022-09-13T21:08:15.820Z,16.83
2022-09-13T21:11:29.234Z,16.93
2022-09-13T21:14:39.948Z,16.81
2022-09-13T21:17:48.555Z,16.73
2022-09-13T21:20:59.687Z,16.99
2022-09-13T21:24:14.466Z,17.02
2022-09-13T21:27:23.009Z,16.86
2022-09-13T21:30:31.315Z,16.74
2022-09-13T21:33:39.763Z,16.77
2022-09-13T21:36:49.818Z,16.74
2022-09-13T21:39:58.261Z,16.75
2022-09-13T21:43:06.820Z,16.87
2022-09-13T21:46:18.667Z,16.83
2022-09-13T21:49:27.686Z,16.81
2022-09-13T21:52:37.283Z,16.68
2022-09-13T21:55:46.537Z,16.74
2022-09-13T21:58:59.287Z,16.69
2022-09-13T22:02:08.190Z,16.70
2022-09-13T22:05:16.799Z,16.97
2022-09-13T22:08:27.023Z,17.12
2022-09-13T22:11:39.112Z,17.02
2022-09-13T22:14:48.519Z,16.81
2022-09-13T22:17:56.647Z,16.72
2022-09-13T22:21:07.189Z,16.64
2022-09-13T22:24:19.624Z,16.72
2022-09-13T22:27:28.347Z,16.68
2022-09-13T22:30:36.786Z,16.86
2022-09-13T22:33:45.557Z,16.89
2022-09-13T22:36:55.771Z,16.94
2022-09-13T22:40:06.542Z,16.95
2022-09-13T22:43:14.977Z,16.94
2022-09-13T22:46:27.220Z,16.93
2022-09-13T22:49:35.398Z,17.04
2022-09-13T22:52:43.652Z,16.98
2022-09-13T22:55:54.683Z,16.98
2022-09-13T22:59:06.184Z,17.03
2022-09-13T23:02:14.381Z,17.03
2022-09-13T23:05:22.503Z,17.10
2022-09-13T23:08:31.136Z,17.17
2022-09-13T23:11:42.054Z,17.09
2022-09-13T23:14:50.146Z,17.13
2022-09-13T23:17:59.100Z,17.13
2022-09-13T23:21:07.952Z,17.11
2022-09-13T23:24:19.125Z,17.13
2022-09-13T23:27:29.021Z,17.16
2022-09-13T23:30:37.311Z,17.14
2022-09-13T23:33:48.381Z,17.08
2022-09-13T23:36:56.573Z,17.10
2022-09-13T23:40:05.115Z,17.09
2022-09-13T23:43:14.795Z,17.07
2022-09-13T23:46:23.398Z,17.04
2022-09-13T23:49:31.845Z,16.95
2022-09-13T23:52:40.253Z,16.96
2022-09-13T23:55:49.136Z,17.08
2022-09-13T23:59:01.337Z,17.09
